Time;durP1;ratioP1;P1;durP2;ratioP2;P2;SDS_P1;SDS_P2;PMS_P1;PMS_P2;Temp;Humidity;BMP_temperature;BMP_pressure;BME280_temperature;BME280_humidity;BME280_pressure;Samples;Min_cycle;Max_cycle;Signal;HPM_P1;HPM_P2
2022/09/23 00:01:06;;;;;;;6.40;5.77;;;;;;;5.70;100.00;99865.53;6275848;22;20211;-79
2022/09/23 00:03:36;;;;;;;5.77;5.27;;;;;;;5.68;100.00;99867.56;6276114;22;20226;-80
2022/09/23 00:06:09;;;;;;;6.47;5.50;;;;;;;5.71;100.00;99869.84;6275278;22;20204;-79
2022/09/23 00:08:37;;;;;;;6.30;5.70;;;;;;;5.74;100.00;99864.97;6224476;22;20214;-79
2022/09/23 00:11:05;;;;;;;5.73;5.17;;;;;;;5.71;100.00;99876.00;6275921;22;20200;-78
2022/09/23 00:13:33;;;;;;;5.60;5.00;;;;;;;5.73;100.00;99868.66;6276638;22;20184;-79
2022/09/23 00:16:09;;;;;;;5.10;4.70;;;;;;;5.75;100.00;99861.31;6248670;22;20231;-79
2022/09/23 00:18:35;;;;;;;5.20;4.70;;;;;;;5.76;100.00;99859.50;6275411;22;20203;-79
2022/09/23 00:21:04;;;;;;;5.13;4.60;;;;;;;5.76;100.00;99865.63;6275646;22;20227;-79
2022/09/23 00:23:31;;;;;;;5.43;4.93;;;;;;;5.75;100.00;99861.31;6276238;22;20550;-80
2022/09/23 00:25:59;;;;;;;5.10;4.60;;;;;;;5.68;100.00;99864.91;6276073;22;20556;-76
2022/09/23 00:28:26;;;;;;;5.30;4.80;;;;;;;5.68;100.00;99860.41;6275109;22;20200;-76
2022/09/23 00:30:53;;;;;;;5.27;4.73;;;;;;;5.68;100.00;99860.41;6275844;22;20211;-77
2022/09/23 00:33:19;;;;;;;4.93;4.43;;;;;;;5.69;100.00;99856.72;6275517;22;20211;-77
2022/09/23 00:35:46;;;;;;;5.23;4.73;;;;;;;5.78;100.00;99849.50;6275948;22;20215;-77
2022/09/23 00:38:13;;;;;;;5.53;4.47;;;;;;;5.82;100.00;99848.13;6235690;22;20200;-77
2022/09/23 00:40:44;;;;;;;4.70;4.23;;;;;;;5.79;100.00;99843.16;6277400;22;20250;-77
2022/09/23 00:43:13;;;;;;;4.97;4.47;;;;;;;5.83;100.00;99849.78;6251110;22;20215;-76
2022/09/23 00:45:41;;;;;;;4.20;3.80;;;;;;;5.79;100.00;99837.84;6277113;22;20207;-77
2022/09/23 00:48:10;;;;;;;4.77;4.30;;;;;;;5.67;100.00;99839.31;6250044;22;20204;-76
2022/09/23 00:50:38;;;;;;;5.37;4.00;;;;;;;5.67;100.00;99829.50;6250364;22;20278;-79
2022/09/23 00:53:08;;;;;;;4.23;3.83;;;;;;;5.55;100.00;99830.97;6250382;22;20552;-79
2022/09/23 00:55:48;;;;;;;4.40;4.00;;;;;;;5.54;100.00;99828.50;6250886;22;20223;-76
2022/09/23 00:58:17;;;;;;;4.60;4.20;;;;;;;5.54;100.00;99836.47;6277210;22;20273;-77
2022/09/23 01:00:45;;;;;;;4.77;4.30;;;;;;;5.49;100.00;99839.69;6250145;22;20698;-77
2022/09/23 01:03:13;;;;;;;4.50;4.10;;;;;;;5.40;100.00;99838.13;6277340;22;20730;-77
2022/09/23 01:05:40;;;;;;;4.70;4.23;;;;;;;5.38;100.00;99845.44;6276832;22;20210;-77
2022/09/23 01:08:09;;;;;;;4.17;3.77;;;;;;;5.33;100.00;99837.16;6277030;22;20200;-76
2022/09/23 01:10:57;;;;;;;3.60;3.30;;;;;;;5.35;100.00;99834.34;6249914;22;20537;-77
2022/09/23 01:13:40;;;;;;;4.00;3.70;;;;;;;5.27;100.00;99833.41;6277249;22;20204;-77
2022/09/23 01:16:33;;;;;;;3.80;3.40;;;;;;;5.25;100.00;99823.97;6276861;22;20236;-76
2022/09/23 01:19:02;;;;;;;4.33;3.93;;;;;;;5.20;100.00;99829.81;6250233;22;20208;-77
2022/09/23 01:21:38;;;;;;;3.80;3.50;;;;;;;5.25;100.00;99834.59;6276832;22;20215;-77
2022/09/23 01:24:22;;;;;;;4.20;3.80;;;;;;;5.24;100.00;99832.94;6276206;22;20671;-77
2022/09/23 01:26:49;;;;;;;3.97;3.57;;;;;;;5.25;100.00;99835.44;6277026;22;20211;-77
2022/09/23 01:29:37;;;;;;;4.23;3.83;;;;;;;5.26;100.00;99833.59;6277081;22;20261;-77
2022/09/23 01:32:12;;;;;;;3.97;3.57;;;;;;;5.24;100.00;99831.13;6261579;22;20601;-78
2022/09/23 01:35:01;;;;;;;3.57;3.20;;;;;;;5.24;100.00;99831.13;6276017;22;20222;-79
2022/09/23 01:37:51;;;;;;;4.73;3.30;;;;;;;5.21;100.00;99828.84;6248852;22;20212;-79
2022/09/23 01:40:37;;;;;;;3.47;3.17;;;;;;;5.20;100.00;99831.66;6247407;22;20212;-79
2022/09/23 01:43:19;;;;;;;3.53;3.23;;;;;;;5.21;100.00;99820.03;6248133;22;20722;-79
2022/09/23 01:45:47;;;;;;;3.50;3.20;;;;;;;5.19;100.00;99828.16;6274881;22;20204;-78
2022/09/23 01:48:17;;;;;;;4.40;3.43;;;;;;;5.21;100.00;99826.19;6247423;22;20234;-80
2022/09/23 01:50:58;;;;;;;3.13;2.93;;;;;;;5.24;100.00;99831.13;6223494;22;20212;-80
2022/09/23 01:53:44;;;;;;;3.30;3.00;;;;;;;5.19;100.00;99830.81;6275273;22;20211;-79
2022/09/23 01:56:20;;;;;;;2.90;2.70;;;;;;;5.17;100.00;99827.53;6274364;22;20235;-79
2022/09/23 01:59:01;;;;;;;3.70;2.70;;;;;;;5.18;100.00;99825.72;6248153;22;20231;-79
2022/09/23 02:01:36;;;;;;;3.17;2.87;;;;;;;5.18;100.00;99823.84;6275036;22;20208;-78
2022/09/23 02:04:08;;;;;;;3.53;2.90;;;;;;;5.20;100.00;99829.00;6274354;22;20211;-78
2022/09/23 02:07:02;;;;;;;4.37;3.10;;;;;;;5.18;100.00;99825.72;6275173;22;20211;-77
2022/09/23 02:09:35;;;;;;;3.20;2.90;;;;;;;5.24;100.00;99827.63;6271628;22;20206;-77
2022/09/23 02:12:04;;;;;;;3.73;3.33;;;;;;;5.25;100.00;99830.13;6222609;22;20223;-76
2022/09/23 02:14:37;;;;;;;3.53;3.23;;;;;;;5.21;100.00;99820.03;6274529;22;20208;-76
2022/09/23 02:17:11;;;;;;;3.80;3.40;;;;;;;5.23;100.00;99818.00;6247968;22;20261;-77
2022/09/23 02:19:44;;;;;;;3.57;3.17;;;;;;;5.19;100.00;99816.72;6248147;22;20211;-77
2022/09/23 02:22:18;;;;;;;3.50;3.20;;;;;;;5.20;100.00;99818.38;6273475;22;20254;-78
2022/09/23 02:24:45;;;;;;;3.40;3.10;;;;;;;5.19;100.00;99809.56;6247824;22;20215;-79
2022/09/23 02:27:24;;;;;;;3.10;2.90;;;;;;;5.17;100.00;99821.41;6274625;22;20250;-79
2022/09/23 02:29:57;;;;;;;4.70;3.70;;;;;;;5.16;100.00;99817.09;6274719;22;20290;-79
2022/09/23 02:32:49;;;;;;;3.50;3.20;;;;;;;5.16;100.00;99820.56;6273945;22;20282;-79
2022/09/23 02:35:40;;;;;;;3.50;3.20;;;;;;;5.17;100.00;99818.75;6274573;22;20231;-78
2022/09/23 02:38:30;;;;;;;3.37;3.07;;;;;;;5.20;100.00;99821.03;6247478;22;20257;-79
2022/09/23 02:41:04;;;;;;;3.50;3.20;;;;;;;5.16;100.00;99819.75;6274365;22;20211;-79
2022/09/23 02:43:41;;;;;;;4.00;3.00;;;;;;;5.17;100.00;99821.41;6247574;22;20672;-77
2022/09/23 02:46:07;;;;;;;3.90;3.07;;;;;;;5.14;100.00;99816.44;6246837;22;20204;-77
2022/09/23 02:48:44;;;;;;;4.00;3.50;;;;;;;5.19;100.00;99816.72;6274311;22;20204;-78
2022/09/23 02:51:11;;;;;;;3.90;3.50;;;;;;;5.21;100.00;99814.72;6247561;22;20265;-77
2022/09/23 02:53:38;;;;;;;3.57;3.27;;;;;;;5.16;100.00;99812.59;6274327;22;20211;-77
2022/09/23 02:56:18;;;;;;;3.70;3.40;;;;;;;5.23;100.00;99810.03;6273736;22;20283;-77
2022/09/23 02:58:47;;;;;;;5.30;3.40;;;;;;;5.29;100.00;99817.28;6248525;22;20538;-77
2022/09/23 03:01:14;;;;;;;3.83;3.30;;;;;;;5.27;100.00;99803.38;6274688;22;20204;-77
2022/09/23 03:03:52;;;;;;;4.90;3.20;;;;;;;5.27;100.00;99798.06;6274223;22;20668;-79
2022/09/23 03:06:39;;;;;;;3.37;3.07;;;;;;;5.39;100.00;99804.56;6273582;22;20263;-77
2022/09/23 03:09:19;;;;;;;3.10;2.90;;;;;;;5.38;100.00;99800.25;6274802;22;20259;-77
2022/09/23 03:11:49;;;;;;;3.40;3.10;;;;;;;5.37;100.00;99805.75;6274057;22;20278;-77
2022/09/23 03:14:18;;;;;;;3.30;3.00;;;;;;;5.42;100.00;99806.03;6246719;22;20208;-77
2022/09/23 03:17:00;;;;;;;3.40;2.97;;;;;;;5.38;100.00;99810.06;6274001;22;20204;-78
2022/09/23 03:19:34;;;;;;;3.23;2.93;;;;;;;5.33;100.00;99803.47;6274176;22;20602;-77
2022/09/23 03:22:14;;;;;;;3.33;2.93;;;;;;;5.33;100.00;99802.63;6247111;22;20230;-76
2022/09/23 03:24:43;;;;;;;2.90;2.70;;;;;;;5.32;100.00;99799.16;6247455;22;20208;-76
2022/09/23 03:27:16;;;;;;;3.60;3.30;;;;;;;5.30;100.00;99798.53;6247507;22;20598;-76
2022/09/23 03:29:52;;;;;;;3.03;2.77;;;;;;;5.38;100.00;99794.13;6222267;22;20239;-77
2022/09/23 03:32:22;;;;;;;3.17;2.93;;;;;;;5.37;100.00;99787.16;6273446;22;20203;-77
2022/09/23 03:34:53;;;;;;;3.43;3.13;;;;;;;5.30;100.00;99787.91;6247541;22;20207;-77
2022/09/23 03:37:22;;;;;;;3.60;3.30;;;;;;;5.27;100.00;99793.56;6247024;22;20207;-77
2022/09/23 03:40:08;;;;;;;3.50;3.20;;;;;;;5.27;100.00;99790.09;6273787;22;20212;-78
2022/09/23 03:42:36;;;;;;;4.33;3.40;;;;;;;5.27;100.00;99793.56;6246760;22;20242;-79
2022/09/23 03:45:07;;;;;;;4.50;3.50;;;;;;;5.28;100.00;99787.25;6246698;22;20207;-78
2022/09/23 03:47:34;;;;;;;3.53;3.23;;;;;;;5.25;100.00;99782.31;6247573;22;20722;-79
2022/09/23 03:50:01;;;;;;;3.80;3.50;;;;;;;5.23;100.00;99786.13;6246380;22;20199;-76
2022/09/23 03:52:27;;;;;;;3.80;3.50;;;;;;;5.28;100.00;99784.59;6273590;22;20204;-76
2022/09/23 03:54:54;;;;;;;4.17;3.87;;;;;;;5.28;100.00;99779.28;6273834;22;20231;-77
2022/09/23 03:57:22;;;;;;;4.30;4.00;;;;;;;5.34;100.00;99777.72;6246487;22;20310;-76
2022/09/23 03:59:50;;;;;;;4.00;3.70;;;;;;;5.42;100.00;99782.13;6273517;22;20207;-77
2022/09/23 04:02:17;;;;;;;3.97;3.60;;;;;;;5.42;100.00;99782.13;6273051;22;20208;-77
2022/09/23 04:04:45;;;;;;;3.53;3.23;;;;;;;5.45;100.00;99787.91;6247088;22;20199;-76
2022/09/23 04:07:12;;;;;;;4.20;3.50;;;;;;;5.46;100.00;99780.75;6247289;22;20532;-77
2022/09/23 04:09:38;;;;;;;3.83;3.53;;;;;;;5.43;100.00;99781.94;6273539;22;20231;-77
2022/09/23 04:12:05;;;;;;;3.73;3.40;;;;;;;5.39;100.00;99779.84;6246463;22;20200;-77
2022/09/23 04:14:32;;;;;;;3.30;3.00;;;;;;;5.36;100.00;99772.25;6273971;22;20567;-76
2022/09/23 04:16:59;;;;;;;3.90;3.60;;;;;;;5.30;100.00;99779.09;6273724;22;20664;-77
2022/09/23 04:19:25;;;;;;;3.90;3.43;;;;;;;5.16;100.00;99778.06;6273279;22;20203;-77
2022/09/23 04:21:52;;;;;;;7.10;3.47;;;;;;;5.09;100.00;99786.94;6273502;22;20204;-77
2022/09/23 04:24:18;;;;;;;3.60;3.07;;;;;;;5.08;100.00;99783.47;6272800;22;20265;-76
2022/09/23 04:26:49;;;;;;;3.97;3.30;;;;;;;5.05;100.00;99781.16;6273659;22;20546;-77
2022/09/23 04:29:15;;;;;;;3.63;3.30;;;;;;;5.02;100.00;99778.88;6273474;22;20212;-79
2022/09/23 04:31:42;;;;;;;3.90;3.60;;;;;;;5.05;100.00;99783.81;6273236;22;20207;-76
2022/09/23 04:34:09;;;;;;;3.50;3.20;;;;;;;5.02;100.00;99780.69;6272654;22;20215;-77
2022/09/23 04:36:35;;;;;;;4.40;3.33;;;;;;;5.01;100.00;99790.50;6246869;22;20211;-76
2022/09/23 04:39:02;;;;;;;5.17;3.20;;;;;;;5.03;100.00;99787.66;6273165;22;20279;-76
2022/09/23 04:41:29;;;;;;;4.07;3.67;;;;;;;5.03;100.00;99782.34;6272896;22;20215;-76
2022/09/23 04:43:56;;;;;;;34.63;22.00;;;;;;;5.05;100.00;99780.34;6273435;22;20238;-77
2022/09/23 04:46:23;;;;;;;18.80;16.37;;;;;;;5.02;100.00;99780.69;6274115;22;20203;-76
2022/09/23 04:48:49;;;;;;;10.00;9.10;;;;;;;5.04;100.00;99784.81;6274988;22;20906;-77
2022/09/23 04:51:18;;;;;;;5.40;4.90;;;;;;;5.04;100.00;99784.00;6273697;22;20739;-77
2022/09/23 04:53:47;;;;;;;6.40;4.90;;;;;;;5.00;100.00;99783.53;6248234;22;20212;-77
2022/09/23 04:56:22;;;;;;;4.00;3.60;;;;;;;5.03;100.00;99782.34;6247817;22;20668;-76
2022/09/23 04:58:49;;;;;;;3.73;3.43;;;;;;;5.06;100.00;99789.97;6274731;22;20242;-77
2022/09/23 05:01:25;;;;;;;3.77;3.47;;;;;;;5.11;100.00;99788.41;6248578;22;20211;-77
2022/09/23 05:03:54;;;;;;;3.50;3.20;;;;;;;5.14;100.00;99795.19;6275349;22;20207;-77
2022/09/23 05:06:20;;;;;;;4.60;3.37;;;;;;;5.05;100.00;99789.13;6248389;22;20211;-76
2022/09/23 05:08:52;;;;;;;4.03;3.60;;;;;;;5.16;100.00;99793.19;6276948;22;20214;-78
2022/09/23 05:11:20;;;;;;;3.80;3.50;;;;;;;5.20;100.00;99783.84;6275696;22;20207;-79
2022/09/23 05:13:47;;;;;;;4.87;3.97;;;;;;;5.23;100.00;99794.09;6248681;22;20215;-78
2022/09/23 05:16:14;;;;;;;4.67;3.43;;;;;;;5.28;100.00;99786.41;6274435;22;20254;-78
2022/09/23 05:18:42;;;;;;;6.47;3.73;;;;;;;5.36;100.00;99796.97;6274575;22;20228;-78
2022/09/23 05:21:10;;;;;;;5.10;4.00;;;;;;;5.45;100.00;99800.38;6248631;22;20208;-78
2022/09/23 05:23:38;;;;;;;4.43;3.70;;;;;;;5.51;100.00;99808.41;6274485;22;20204;-78
2022/09/23 05:26:10;;;;;;;4.00;3.60;;;;;;;5.63;100.00;99808.81;6248216;22;20215;-78
2022/09/23 05:28:38;;;;;;;5.93;3.73;;;;;;;5.74;100.00;99797.69;6248640;22;20287;-80
2022/09/23 05:31:15;;;;;;;5.17;4.57;;;;;;;5.88;100.00;99810.19;6275660;22;20208;-80
2022/09/23 05:33:50;;;;;;;4.87;4.10;;;;;;;6.02;100.00;99804.00;6250259;22;20733;-80
2022/09/23 05:36:21;;;;;;;5.90;3.87;;;;;;;6.13;100.00;99813.38;6248761;22;20212;-81
2022/09/23 05:38:50;;;;;;;7.27;3.70;;;;;;;6.22;100.00;99809.59;6249019;22;20212;-80
2022/09/23 05:41:18;;;;;;;5.50;5.00;;;;;;;6.35;100.00;99811.56;6248743;22;20210;-80
2022/09/23 05:43:46;;;;;;;5.23;4.70;;;;;;;6.45;100.00;99812.09;6275831;22;20730;-80
2022/09/23 05:46:17;;;;;;;5.20;4.20;;;;;;;6.51;100.00;99811.34;6247663;22;20287;-80
2022/09/23 05:48:46;;;;;;;5.13;4.63;;;;;;;6.65;100.00;99810.47;6275988;22;20215;-81
2022/09/23 05:51:16;;;;;;;8.53;4.30;;;;;;;6.80;100.00;99823.72;6275519;22;20204;-81
2022/09/23 05:53:44;;;;;;;5.83;4.90;;;;;;;6.90;100.00;99816.25;6248325;22;20239;-81
2022/09/23 05:56:11;;;;;;;6.40;5.20;;;;;;;7.03;100.00;99814.50;6274231;22;20208;-80
2022/09/23 05:58:39;;;;;;;7.30;5.63;;;;;;;7.16;100.00;99818.28;6275441;22;20195;-80
2022/09/23 06:01:16;;;;;;;6.87;5.00;;;;;;;7.28;100.00;99811.44;6248900;22;20200;-81
2022/09/23 06:03:47;;;;;;;5.00;4.43;;;;;;;7.40;100.00;99816.03;6249296;22;20253;-80
2022/09/23 06:06:16;;;;;;;4.50;4.10;;;;;;;7.55;100.00;99815.09;6247861;22;20262;-80
2022/09/23 06:08:46;;;;;;;5.03;3.73;;;;;;;7.70;100.00;99818.47;6275844;22;20199;-81
2022/09/23 06:11:13;;;;;;;4.10;3.70;;;;;;;7.82;100.00;99817.72;6275920;22;20237;-81
2022/09/23 06:13:41;;;;;;;4.93;4.10;;;;;;;7.92;100.00;99817.34;6275625;22;20203;-80
2022/09/23 06:16:12;;;;;;;9.13;3.97;;;;;;;8.07;100.00;99822.56;6275345;22;20287;-81
2022/09/23 06:18:43;;;;;;;4.07;3.40;;;;;;;8.21;100.00;99822.38;6275855;22;20279;-80
2022/09/23 06:21:12;;;;;;;5.47;3.50;;;;;;;8.34;100.00;99827.00;6275445;22;20274;-80
2022/09/23 06:23:39;;;;;;;4.17;3.10;;;;;;;8.43;100.00;99828.47;6275701;22;20211;-80
2022/09/23 06:26:09;;;;;;;4.63;3.10;;;;;;;8.55;100.00;99826.03;6275764;22;20210;-81
2022/09/23 06:28:38;;;;;;;5.13;3.37;;;;;;;8.66;100.00;99831.63;6275828;22;20200;-81
2022/09/23 06:31:12;;;;;;;4.13;3.60;;;;;;;8.71;100.00;99831.84;6249292;22;20191;-81
2022/09/23 06:33:41;;;;;;;4.27;3.10;;;;;;;8.86;100.00;99836.19;6274930;22;20208;-81
2022/09/23 06:36:09;;;;;;;4.33;3.10;;;;;;;8.88;100.00;99834.09;6248915;22;20546;-80
2022/09/23 06:38:42;;;;;;;3.87;3.20;;;;;;;9.00;100.00;99832.50;6250359;22;20202;-81
2022/09/23 06:41:10;;;;;;;3.57;3.23;;;;;;;8.83;100.00;99838.22;6250740;22;20226;-81
2022/09/23 06:43:37;;;;;;;5.27;3.47;;;;;;;8.98;100.00;99830.00;6250826;22;20701;-80
2022/09/23 06:46:06;;;;;;;4.57;3.20;;;;;;;9.15;100.00;99836.59;6275761;22;20215;-80
2022/09/23 06:48:34;;;;;;;4.00;2.93;;;;;;;9.25;100.00;99838.84;6250979;22;20196;-80
2022/09/23 06:51:03;;;;;;;3.70;3.40;;;;;;;9.36;100.00;99837.44;6250393;22;20254;-81
2022/09/23 06:53:33;;;;;;;5.03;3.03;;;;;;;9.45;100.00;99842.34;6250174;22;20216;-80
2022/09/23 06:56:02;;;;;;;4.57;3.13;;;;;;;9.61;100.00;99836.56;6250755;22;20702;-81
2022/09/23 06:58:29;;;;;;;4.70;3.50;;;;;;;9.68;100.00;99840.06;6250012;22;20644;-80
2022/09/23 07:01:10;;;;;;;5.23;3.70;;;;;;;9.75;100.00;99848.09;6276765;22;20204;-81
2022/09/23 07:03:37;;;;;;;3.70;3.40;;;;;;;9.86;100.00;99842.06;6277243;22;20231;-80
2022/09/23 07:06:04;;;;;;;5.73;3.40;;;;;;;9.98;100.00;99852.97;6276234;22;20679;-80
2022/09/23 07:08:32;;;;;;;4.37;3.67;;;;;;;10.08;100.00;99843.44;6277003;22;20204;-80
2022/09/23 07:11:01;;;;;;;4.93;3.90;;;;;;;10.19;100.00;99849.22;6276985;22;20211;-79
2022/09/23 07:13:29;;;;;;;4.20;3.30;;;;;;;10.25;100.00;99838.50;6277059;22;20208;-79
2022/09/23 07:15:57;;;;;;;4.93;4.13;;;;;;;10.36;100.00;99845.84;6276951;22;20204;-78
2022/09/23 07:18:25;;;;;;;5.87;3.70;;;;;;;10.35;100.00;99840.72;6276906;22;20198;-78
2022/09/23 07:20:52;;;;;;;3.90;3.53;;;;;;;10.56;100.00;99843.91;6276847;22;20203;-78
2022/09/23 07:23:19;;;;;;;4.17;3.60;;;;;;;10.64;100.00;99852.75;6277044;22;20200;-78
2022/09/23 07:25:49;;;;;;;6.40;3.60;;;;;;;10.61;100.00;99845.94;6250573;22;20211;-78
2022/09/23 07:28:16;;;;;;;3.87;3.47;;;;;;;10.73;100.00;99854.94;6250441;22;20210;-78
2022/09/23 07:30:43;;;;;;;3.97;3.53;;;;;;;10.86;100.00;99856.72;6249763;22;20656;-79
2022/09/23 07:33:24;;;;;;;3.90;3.50;;;;;;;10.82;100.00;99855.53;6277061;22;20204;-79
2022/09/23 07:35:58;;;;;;;3.37;3.10;;;;;;;10.78;100.00;99843.59;6276825;22;20208;-78
2022/09/23 07:38:28;;;;;;;4.40;3.67;;;;;;;10.98;100.00;99853.13;6275917;22;20223;-79
2022/09/23 07:41:04;;;;;;;3.67;3.27;;;;;;;10.84;100.00;99850.75;6225800;22;20535;-78
2022/09/23 07:43:31;;;;;;;3.83;3.53;;;;;;;11.16;100.00;99847.00;6250083;22;20203;-79
2022/09/23 07:46:02;;;;;;;3.47;3.17;;;;;;;11.36;100.00;99847.69;6276410;22;20208;-79
2022/09/23 07:48:29;;;;;;;3.40;3.10;;;;;;;11.46;100.00;99849.88;6249283;22;20200;-79
2022/09/23 07:51:25;;;;;;;3.37;3.07;;;;;;;11.64;100.00;99851.78;6276628;22;20242;-79
2022/09/23 07:53:52;;;;;;;3.70;3.40;;;;;;;11.79;100.00;99847.72;6275816;22;20641;-79
2022/09/23 07:56:21;;;;;;;4.17;3.73;;;;;;;11.91;100.00;99843.25;6248184;22;20196;-80
2022/09/23 07:58:58;;;;;;;3.60;3.30;;;;;;;12.06;100.00;99852.81;6249126;22;20250;-79
2022/09/23 08:01:28;;;;;;;3.83;3.27;;;;;;;12.19;100.00;99848.09;6251299;22;20203;-79
2022/09/23 08:04:07;;;;;;;3.57;3.27;;;;;;;12.31;100.00;99854.38;6248762;22;20200;-80
2022/09/23 08:06:33;;;;;;;4.37;3.27;;;;;;;12.36;100.00;99851.81;6248562;22;20210;-79
2022/09/23 08:09:00;;;;;;;3.90;3.60;;;;;;;12.39;100.00;99849.75;6275582;22;20196;-80
2022/09/23 08:11:27;;;;;;;4.97;4.17;;;;;;;12.58;100.00;99856.72;6275652;22;20214;-80
2022/09/23 08:13:54;;;;;;;4.60;3.80;;;;;;;12.49;100.00;99850.03;6275433;22;20570;-80
2022/09/23 08:16:21;;;;;;;5.50;4.27;;;;;;;12.40;100.00;99851.38;6275583;22;20567;-80
2022/09/23 08:18:48;;;;;;;7.13;4.53;;;;;;;12.64;100.00;99851.28;6275875;22;20204;-80
2022/09/23 08:21:21;;;;;;;3.70;3.40;;;;;;;12.89;100.00;99844.91;6277166;22;20218;-79
2022/09/23 08:23:48;;;;;;;6.13;4.03;;;;;;;12.91;100.00;99838.28;6250642;22;20223;-80
2022/09/23 08:26:14;;;;;;;9.73;5.80;;;;;;;12.65;100.00;99839.44;6276926;22;20200;-80
2022/09/23 08:28:47;;;;;;;4.23;3.83;;;;;;;12.52;100.00;99838.81;6277555;22;20210;-80
2022/09/23 08:31:14;;;;;;;4.83;4.07;;;;;;;12.77;100.00;99832.28;6277651;22;20214;-80
2022/09/23 08:33:40;;;;;;;7.97;4.57;;;;;;;12.75;100.00;99833.53;6277454;22;20207;-80
2022/09/23 08:36:07;;;;;;;10.87;5.43;;;;;;;12.96;100.00;99824.97;6277009;22;20204;-79
2022/09/23 08:38:34;;;;;;;6.73;4.53;;;;;;;13.20;100.00;99820.47;6248847;22;20287;-81
2022/09/23 08:41:14;;;;;;;4.37;3.97;;;;;;;13.30;100.00;99823.41;6277126;22;20214;-80
2022/09/23 08:43:47;;;;;;;3.97;3.67;;;;;;;13.44;100.00;99823.97;6250414;22;20208;-80
2022/09/23 08:46:21;;;;;;;6.30;4.17;;;;;;;13.43;100.00;99817.00;6250088;22;20201;-80
2022/09/23 08:48:48;;;;;;;5.43;4.13;;;;;;;13.73;100.00;99817.66;6250412;22;20213;-79
2022/09/23 08:51:23;;;;;;;4.27;3.83;;;;;;;13.87;100.00;99820.94;6277310;22;20204;-80
2022/09/23 08:53:49;;;;;;;13.07;5.90;;;;;;;13.48;97.02;99809.03;6250480;22;20588;-80
2022/09/23 08:56:19;;;;;;;8.70;4.83;;;;;;;13.67;100.00;99805.13;6276894;22;20230;-80
2022/09/23 08:58:53;;;;;;;7.00;4.47;;;;;;;13.87;98.37;99818.25;6277193;22;20266;-83
2022/09/23 09:01:51;;;;;;;5.43;4.43;;;;;;;13.84;92.21;99816.03;6277477;22;20258;-80
2022/09/23 09:04:51;;;;;;;13.67;5.87;;;;;;;13.92;86.87;99812.97;6249633;22;20216;-81
2022/09/23 09:07:21;;;;;;;5.87;3.90;;;;;;;14.04;87.12;99803.00;6259860;22;20544;-80
2022/09/23 09:10:18;;;;;;;7.03;6.10;;;;;;;14.13;91.54;99808.84;6252718;22;20211;-80
2022/09/23 09:12:49;;;;;;;3.83;3.53;;;;;;;14.51;82.20;99801.81;6250157;22;20280;-81
2022/09/23 09:15:26;;;;;;;3.60;3.30;;;;;;;14.71;73.50;99804.06;6250244;22;20210;-80
2022/09/23 09:17:58;;;;;;;3.30;3.00;;;;;;;14.88;73.59;99804.13;6250834;22;20672;-80
2022/09/23 09:20:55;;;;;;;3.40;3.10;;;;;;;15.12;67.94;99799.38;6276021;22;20267;-81
2022/09/23 09:23:30;;;;;;;4.80;2.73;;;;;;;15.23;65.31;99795.78;6250741;22;20225;-80
2022/09/23 09:25:59;;;;;;;3.13;2.90;;;;;;;15.34;65.64;99789.50;6276818;22;20215;-80
2022/09/23 09:28:36;;;;;;;9.80;4.77;;;;;;;15.18;66.61;99787.59;6249330;22;20198;-81
2022/09/23 09:31:37;;;;;;;20.47;7.17;;;;;;;15.29;68.82;99787.53;6249648;22;20240;-80
2022/09/23 09:34:10;;;;;;;14.00;5.73;;;;;;;15.54;68.39;99786.31;6276262;22;20690;-79
2022/09/23 09:36:52;;;;;;;6.17;3.77;;;;;;;15.68;67.69;99783.00;6274303;22;20620;-81
2022/09/23 09:39:19;;;;;;;3.43;3.07;;;;;;;15.68;63.42;99765.97;6274367;22;20210;-80
2022/09/23 09:41:52;;;;;;;4.50;3.27;;;;;;;15.75;63.75;99759.34;6274174;22;20219;-80
2022/09/23 09:44:30;;;;;;;6.17;3.23;;;;;;;15.99;63.67;99753.69;6273647;22;20534;-81
2022/09/23 09:47:14;;;;;;;6.30;3.87;;;;;;;16.12;64.22;99747.88;6247443;22;20211;-80
2022/09/23 09:49:51;;;;;;;2.93;2.30;;;;;;;16.22;59.11;99746.13;6274380;22;20830;-81
2022/09/23 09:52:25;;;;;;;2.40;2.00;;;;;;;16.29;54.03;99748.63;6246801;22;20264;-80
2022/09/23 09:54:53;;;;;;;14.23;4.47;;;;;;;16.22;53.47;99748.00;6247113;22;20286;-81
2022/09/23 09:57:29;;;;;;;7.53;2.97;;;;;;;15.82;51.61;99740.22;6273911;22;20212;-82
2022/09/23 10:00:25;;;;;;;2.60;2.10;;;;;;;15.94;52.72;99740.09;6273589;22;20209;-79
2022/09/23 10:03:03;;;;;;;2.57;2.10;;;;;;;16.09;54.10;99733.00;6272070;22;20645;-80
2022/09/23 10:05:42;;;;;;;3.10;2.20;;;;;;;16.28;55.12;99736.19;6273736;22;20215;-81
2022/09/23 10:08:23;;;;;;;2.53;2.33;;;;;;;16.41;53.54;99734.97;6273060;22;20222;-80
2022/09/23 10:10:53;;;;;;;2.37;2.17;;;;;;;16.53;53.35;99743.72;6247400;22;20270;-82
2022/09/23 10:13:23;;;;;;;3.00;2.40;;;;;;;16.26;52.56;99732.91;6247306;22;20672;-83
2022/09/23 10:15:53;;;;;;;2.43;2.23;;;;;;;16.54;52.00;99729.97;6273832;22;20702;-80
2022/09/23 10:18:31;;;;;;;2.70;2.10;;;;;;;16.59;51.79;99734.63;6247433;22;20465;-81
2022/09/23 10:21:11;;;;;;;3.23;2.00;;;;;;;16.22;52.05;99723.69;6258339;22;20210;-81
2022/09/23 10:23:40;;;;;;;2.57;2.07;;;;;;;16.41;52.26;99738.50;6272964;22;20656;-80
2022/09/23 10:26:09;;;;;;;2.07;1.80;;;;;;;16.59;51.24;99731.94;6246579;22;20262;-82
2022/09/23 10:28:58;;;;;;;2.23;1.60;;;;;;;16.78;49.95;99738.59;6273438;22;20287;-81
2022/09/23 10:31:27;;;;;;;1.77;1.67;;;;;;;17.10;49.64;99727.75;6273392;22;20212;-80
2022/09/23 10:33:59;;;;;;;2.10;1.80;;;;;;;17.25;49.34;99730.59;6273372;22;20243;-80
2022/09/23 10:36:28;;;;;;;2.40;1.87;;;;;;;17.17;47.12;99723.75;6245916;22;20513;-80
2022/09/23 10:48:34;;;;;;;4.47;1.53;;;;;;;17.81;47.11;99718.19;6272672;22;20234;-80
2022/09/23 10:51:25;;;;;;;1.70;1.53;;;;;;;17.78;44.74;99712.47;6247301;22;20211;-80
2022/09/23 10:53:57;;;;;;;2.50;1.40;;;;;;;17.94;45.57;99712.28;6273061;22;20204;-80
2022/09/23 10:56:38;;;;;;;1.60;1.50;;;;;;;18.08;44.92;99709.88;6246419;22;20196;-80
2022/09/23 10:59:29;;;;;;;1.80;1.70;;;;;;;18.12;44.19;99710.97;6246547;22;20219;-80
2022/09/23 11:02:27;;;;;;;1.77;1.57;;;;;;;18.22;43.95;99699.34;6273203;22;20208;-80
2022/09/23 11:05:10;;;;;;;1.73;1.47;;;;;;;18.37;42.82;99697.50;6246292;22;20293;-81
2022/09/23 11:07:45;;;;;;;2.67;1.63;;;;;;;18.52;42.23;99702.13;6271856;22;20215;-81
2022/09/23 11:10:34;;;;;;;1.83;1.37;;;;;;;18.66;42.24;99695.13;6273196;22;20217;-81
2022/09/23 11:13:39;;;;;;;1.63;1.40;;;;;;;18.21;42.08;99684.97;6273212;22;20232;-81
2022/09/23 11:16:19;;;;;;;1.67;1.50;;;;;;;18.28;40.89;99682.81;6272466;22;20208;-80
2022/09/23 11:19:17;;;;;;;1.63;1.47;;;;;;;18.41;43.37;99682.31;6273296;22;20208;-83
2022/09/23 11:21:57;;;;;;;1.80;1.40;;;;;;;18.66;42.55;99678.00;6267031;22;20210;-80
2022/09/23 11:24:59;;;;;;;1.70;1.60;;;;;;;18.67;41.99;99674.19;6246311;22;20211;-81
2022/09/23 11:27:56;;;;;;;1.50;1.40;;;;;;;18.47;41.61;99672.28;6246222;22;20207;-80
2022/09/23 11:30:48;;;;;;;1.53;1.43;;;;;;;18.73;42.01;99663.06;6272336;22;20227;-80
2022/09/23 11:33:45;;;;;;;1.93;1.30;;;;;;;18.20;42.93;99666.25;6256983;22;20208;-83
2022/09/23 11:36:28;;;;;;;1.77;1.50;;;;;;;18.04;42.73;99647.25;6257576;22;20228;-80
2022/09/23 11:38:58;;;;;;;2.60;1.60;;;;;;;17.71;41.61;99644.97;6246407;22;20204;-80
2022/09/23 11:41:27;;;;;;;2.67;1.20;;;;;;;18.38;41.26;99644.06;6273059;22;20209;-82
2022/09/23 11:44:35;;;;;;;1.30;1.20;;;;;;;18.76;41.73;99646.25;6245939;22;20207;-80
2022/09/23 11:47:13;;;;;;;1.67;1.30;;;;;;;19.04;42.18;99638.59;6271783;22;20222;-78
2022/09/23 11:49:59;;;;;;;1.33;1.23;;;;;;;19.15;40.02;99638.31;6246557;22;20203;-78
2022/09/23 11:52:31;;;;;;;1.63;1.00;;;;;;;19.28;40.18;99637.72;6245310;22;20673;-78
2022/09/23 11:55:18;;;;;;;1.30;1.20;;;;;;;19.44;39.31;99624.97;6273577;22;20234;-78
2022/09/23 11:57:52;;;;;;;2.87;1.50;;;;;;;19.16;37.30;99614.69;6246792;22;20205;-78
2022/09/23 12:00:22;;;;;;;1.20;1.10;;;;;;;19.50;37.75;99612.97;6245564;22;20200;-78
2022/09/23 12:03:10;;;;;;;1.67;1.23;;;;;;;19.64;38.33;99613.19;6272774;22;20701;-78
2022/09/23 12:05:46;;;;;;;1.37;1.27;;;;;;;18.70;39.88;99614.78;6272904;22;20209;-83
2022/09/23 12:08:28;;;;;;;1.60;1.10;;;;;;;18.57;41.88;99612.59;6272531;22;20207;-81
2022/09/23 12:11:19;;;;;;;1.10;1.00;;;;;;;18.72;42.64;99611.78;6273001;22;20207;-78